sensor_id;sensor_type;location;lat;lon;timestamp;P1;durP1;ratioP1;P2;durP2;ratioP2
34978;SDS011;21185;50.978;13.720;2023-01-29T00:00:24;11.48;;;4.93;;
34978;SDS011;21185;50.978;13.720;2023-01-29T00:05:28;10.48;;;5.10;;
34978;SDS011;21185;50.978;13.720;2023-01-29T00:10:30;10.15;;;4.68;;
34978;SDS011;21185;50.978;13.720;2023-01-29T00:15:32;7.93;;;4.00;;
34978;SDS011;21185;50.978;13.720;2023-01-29T00:20:33;9.77;;;4.90;;
34978;SDS011;21185;50.978;13.720;2023-01-29T00:25:36;11.38;;;5.45;;
34978;SDS011;21185;50.978;13.720;2023-01-29T00:30:38;12.02;;;5.38;;
34978;SDS011;21185;50.978;13.720;2023-01-29T00:35:40;9.32;;;4.68;;
34978;SDS011;21185;50.978;13.720;2023-01-29T00:40:42;9.98;;;4.78;;
34978;SDS011;21185;50.978;13.720;2023-01-29T00:46:03;13.00;;;5.55;;
34978;SDS011;21185;50.978;13.720;2023-01-29T00:51:07;9.30;;;4.68;;
34978;SDS011;21185;50.978;13.720;2023-01-29T00:56:09;11.02;;;5.20;;
34978;SDS011;21185;50.978;13.720;2023-01-29T01:01:11;8.80;;;4.93;;
34978;SDS011;21185;50.978;13.720;2023-01-29T01:06:13;6.72;;;3.83;;
34978;SDS011;21185;50.978;13.720;2023-01-29T01:11:16;11.70;;;4.45;;
34978;SDS011;21185;50.978;13.720;2023-01-29T01:16:18;10.07;;;4.88;;
34978;SDS011;21185;50.978;13.720;2023-01-29T01:21:21;8.80;;;4.22;;
34978;SDS011;21185;50.978;13.720;2023-01-29T01:26:23;9.77;;;5.38;;
34978;SDS011;21185;50.978;13.720;2023-01-29T01:31:25;12.32;;;5.55;;
34978;SDS011;21185;50.978;13.720;2023-01-29T01:36:28;12.32;;;4.85;;
34978;SDS011;21185;50.978;13.720;2023-01-29T01:41:30;10.68;;;4.80;;
34978;SDS011;21185;50.978;13.720;2023-01-29T01:46:35;9.80;;;5.57;;
34978;SDS011;21185;50.978;13.720;2023-01-29T01:51:39;12.18;;;5.30;;
34978;SDS011;21185;50.978;13.720;2023-01-29T01:56:44;14.15;;;5.68;;
34978;SDS011;21185;50.978;13.720;2023-01-29T02:01:51;8.47;;;5.03;;
34978;SDS011;21185;50.978;13.720;2023-01-29T02:06:54;10.30;;;5.10;;
34978;SDS011;21185;50.978;13.720;2023-01-29T02:12:19;12.48;;;6.03;;
34978;SDS011;21185;50.978;13.720;2023-01-29T02:17:26;11.50;;;5.75;;
34978;SDS011;21185;50.978;13.720;2023-01-29T02:22:33;9.65;;;4.88;;
34978;SDS011;21185;50.978;13.720;2023-01-29T02:33:25;10.13;;;6.13;;
34978;SDS011;21185;50.978;13.720;2023-01-29T02:44:05;15.23;;;6.25;;
34978;SDS011;21185;50.978;13.720;2023-01-29T02:49:23;12.77;;;6.05;;
34978;SDS011;21185;50.978;13.720;2023-01-29T02:54:45;12.43;;;6.57;;
34978;SDS011;21185;50.978;13.720;2023-01-29T03:00:16;14.20;;;6.90;;
34978;SDS011;21185;50.978;13.720;2023-01-29T03:05:30;11.07;;;6.38;;
34978;SDS011;21185;50.978;13.720;2023-01-29T03:10:52;12.15;;;6.20;;
34978;SDS011;21185;50.978;13.720;2023-01-29T03:15:59;11.38;;;6.00;;
34978;SDS011;21185;50.978;13.720;2023-01-29T03:21:39;10.30;;;5.63;;
34978;SDS011;21185;50.978;13.720;2023-01-29T03:27:03;13.68;;;6.60;;
34978;SDS011;21185;50.978;13.720;2023-01-29T03:32:30;10.25;;;5.60;;
34978;SDS011;21185;50.978;13.720;2023-01-29T03:37:35;13.15;;;6.55;;
34978;SDS011;21185;50.978;13.720;2023-01-29T03:48:01;10.93;;;5.45;;
34978;SDS011;21185;50.978;13.720;2023-01-29T04:04:03;11.93;;;6.40;;
34978;SDS011;21185;50.978;13.720;2023-01-29T04:09:29;15.73;;;7.32;;
34978;SDS011;21185;50.978;13.720;2023-01-29T04:14:36;12.05;;;6.45;;
34978;SDS011;21185;50.978;13.720;2023-01-29T04:19:39;12.73;;;7.13;;
34978;SDS011;21185;50.978;13.720;2023-01-29T04:24:41;15.55;;;7.57;;
34978;SDS011;21185;50.978;13.720;2023-01-29T04:40:07;15.80;;;6.93;;
34978;SDS011;21185;50.978;13.720;2023-01-29T04:45:32;14.05;;;6.72;;
34978;SDS011;21185;50.978;13.720;2023-01-29T04:51:07;16.03;;;7.63;;
34978;SDS011;21185;50.978;13.720;2023-01-29T05:01:21;16.77;;;8.70;;
34978;SDS011;21185;50.978;13.720;2023-01-29T05:06:26;13.07;;;8.00;;
34978;SDS011;21185;50.978;13.720;2023-01-29T05:11:31;19.10;;;9.18;;
34978;SDS011;21185;50.978;13.720;2023-01-29T05:16:37;15.70;;;7.45;;
34978;SDS011;21185;50.978;13.720;2023-01-29T05:21:44;20.08;;;9.07;;
34978;SDS011;21185;50.978;13.720;2023-01-29T05:26:50;13.73;;;7.50;;
34978;SDS011;21185;50.978;13.720;2023-01-29T05:32:13;14.30;;;7.45;;
34978;SDS011;21185;50.978;13.720;2023-01-29T05:37:16;15.98;;;8.40;;
34978;SDS011;21185;50.978;13.720;2023-01-29T05:42:18;16.52;;;7.90;;
34978;SDS011;21185;50.978;13.720;2023-01-29T05:47:19;16.73;;;8.00;;
34978;SDS011;21185;50.978;13.720;2023-01-29T05:52:22;13.70;;;7.68;;
34978;SDS011;21185;50.978;13.720;2023-01-29T05:57:23;11.68;;;7.38;;
34978;SDS011;21185;50.978;13.720;2023-01-29T06:02:28;14.13;;;7.68;;
34978;SDS011;21185;50.978;13.720;2023-01-29T06:07:31;14.68;;;8.00;;
34978;SDS011;21185;50.978;13.720;2023-01-29T06:12:33;13.77;;;7.28;;
34978;SDS011;21185;50.978;13.720;2023-01-29T06:17:35;17.48;;;7.43;;
34978;SDS011;21185;50.978;13.720;2023-01-29T06:22:37;14.10;;;7.00;;
34978;SDS011;21185;50.978;13.720;2023-01-29T06:27:39;12.18;;;6.95;;
34978;SDS011;21185;50.978;13.720;2023-01-29T06:32:41;15.68;;;7.82;;
34978;SDS011;21185;50.978;13.720;2023-01-29T06:37:43;11.18;;;6.65;;
34978;SDS011;21185;50.978;13.720;2023-01-29T06:42:45;12.75;;;6.28;;
34978;SDS011;21185;50.978;13.720;2023-01-29T06:47:47;22.17;;;6.90;;
34978;SDS011;21185;50.978;13.720;2023-01-29T06:52:48;10.65;;;6.68;;
34978;SDS011;21185;50.978;13.720;2023-01-29T06:57:50;9.73;;;5.75;;
34978;SDS011;21185;50.978;13.720;2023-01-29T07:02:52;11.48;;;6.93;;
34978;SDS011;21185;50.978;13.720;2023-01-29T07:07:56;16.42;;;7.25;;
34978;SDS011;21185;50.978;13.720;2023-01-29T07:12:58;10.93;;;6.10;;
34978;SDS011;21185;50.978;13.720;2023-01-29T07:18:03;13.85;;;7.35;;
34978;SDS011;21185;50.978;13.720;2023-01-29T07:23:12;13.75;;;6.93;;
34978;SDS011;21185;50.978;13.720;2023-01-29T07:28:18;13.30;;;7.15;;
34978;SDS011;21185;50.978;13.720;2023-01-29T07:33:21;12.32;;;6.90;;
34978;SDS011;21185;50.978;13.720;2023-01-29T07:38:23;12.35;;;7.13;;
34978;SDS011;21185;50.978;13.720;2023-01-29T07:43:24;15.77;;;7.70;;
34978;SDS011;21185;50.978;13.720;2023-01-29T07:48:26;14.55;;;7.68;;
34978;SDS011;21185;50.978;13.720;2023-01-29T07:53:28;15.05;;;7.43;;
34978;SDS011;21185;50.978;13.720;2023-01-29T07:58:30;16.58;;;8.40;;
34978;SDS011;21185;50.978;13.720;2023-01-29T08:03:35;15.77;;;7.57;;
34978;SDS011;21185;50.978;13.720;2023-01-29T08:08:37;12.38;;;7.32;;
34978;SDS011;21185;50.978;13.720;2023-01-29T08:13:39;11.88;;;6.80;;
34978;SDS011;21185;50.978;13.720;2023-01-29T08:18:41;13.38;;;7.50;;
34978;SDS011;21185;50.978;13.720;2023-01-29T08:23:46;15.05;;;6.95;;
34978;SDS011;21185;50.978;13.720;2023-01-29T08:28:48;12.30;;;6.50;;
34978;SDS011;21185;50.978;13.720;2023-01-29T08:33:52;14.82;;;7.28;;
34978;SDS011;21185;50.978;13.720;2023-01-29T08:38:54;10.93;;;6.95;;
34978;SDS011;21185;50.978;13.720;2023-01-29T08:43:56;12.70;;;6.97;;
34978;SDS011;21185;50.978;13.720;2023-01-29T08:48:58;14.73;;;7.45;;
34978;SDS011;21185;50.978;13.720;2023-01-29T08:54:00;13.02;;;6.93;;
34978;SDS011;21185;50.978;13.720;2023-01-29T08:59:02;11.60;;;6.70;;
34978;SDS011;21185;50.978;13.720;2023-01-29T09:04:03;9.98;;;6.03;;
34978;SDS011;21185;50.978;13.720;2023-01-29T09:09:06;13.63;;;6.85;;
34978;SDS011;21185;50.978;13.720;2023-01-29T09:14:08;12.57;;;6.63;;
34978;SDS011;21185;50.978;13.720;2023-01-29T09:19:12;11.02;;;6.35;;
34978;SDS011;21185;50.978;13.720;2023-01-29T09:24:14;16.33;;;8.15;;
34978;SDS011;21185;50.978;13.720;2023-01-29T09:29:16;9.15;;;5.55;;
34978;SDS011;21185;50.978;13.720;2023-01-29T09:34:18;14.60;;;7.32;;
34978;SDS011;21185;50.978;13.720;2023-01-29T09:39:20;10.00;;;6.40;;
34978;SDS011;21185;50.978;13.720;2023-01-29T09:44:25;11.65;;;7.15;;
34978;SDS011;21185;50.978;13.720;2023-01-29T09:49:51;15.07;;;6.43;;
34978;SDS011;21185;50.978;13.720;2023-01-29T09:55:06;10.85;;;6.43;;
34978;SDS011;21185;50.978;13.720;2023-01-29T10:01:05;7.85;;;3.95;;
34978;SDS011;21185;50.978;13.720;2023-01-29T10:27:12;11.98;;;6.45;;
34978;SDS011;21185;50.978;13.720;2023-01-29T10:32:17;17.10;;;7.40;;
34978;SDS011;21185;50.978;13.720;2023-01-29T10:37:22;11.68;;;6.68;;
34978;SDS011;21185;50.978;13.720;2023-01-29T10:58:12;13.40;;;7.05;;
34978;SDS011;21185;50.978;13.720;2023-01-29T11:03:20;11.68;;;6.13;;
34978;SDS011;21185;50.978;13.720;2023-01-29T11:08:39;17.00;;;7.03;;
34978;SDS011;21185;50.978;13.720;2023-01-29T11:13:47;14.82;;;7.45;;
34978;SDS011;21185;50.978;13.720;2023-01-29T11:18:56;8.93;;;5.72;;
34978;SDS011;21185;50.978;13.720;2023-01-29T11:24:21;15.90;;;7.43;;
34978;SDS011;21185;50.978;13.720;2023-01-29T11:34:33;13.27;;;6.80;;
34978;SDS011;21185;50.978;13.720;2023-01-29T11:39:36;22.17;;;7.65;;
34978;SDS011;21185;50.978;13.720;2023-01-29T11:44:44;14.40;;;7.03;;
34978;SDS011;21185;50.978;13.720;2023-01-29T11:49:50;16.42;;;7.90;;
34978;SDS011;21185;50.978;13.720;2023-01-29T11:54:58;16.35;;;6.65;;
34978;SDS011;21185;50.978;13.720;2023-01-29T12:00:09;13.23;;;6.35;;
34978;SDS011;21185;50.978;13.720;2023-01-29T12:05:23;12.23;;;6.15;;
34978;SDS011;21185;50.978;13.720;2023-01-29T12:10:31;13.15;;;6.63;;
34978;SDS011;21185;50.978;13.720;2023-01-29T12:15:34;11.03;;;6.43;;
34978;SDS011;21185;50.978;13.720;2023-01-29T12:20:41;12.00;;;6.70;;
34978;SDS011;21185;50.978;13.720;2023-01-29T12:26:06;13.27;;;7.07;;
34978;SDS011;21185;50.978;13.720;2023-01-29T12:36:41;4.50;;;2.75;;
34978;SDS011;21185;50.978;13.720;2023-01-29T12:42:09;14.25;;;6.53;;
34978;SDS011;21185;50.978;13.720;2023-01-29T12:47:19;14.38;;;6.38;;
34978;SDS011;21185;50.978;13.720;2023-01-29T12:52:35;13.23;;;6.20;;
34978;SDS011;21185;50.978;13.720;2023-01-29T13:08:10;9.50;;;5.03;;
34978;SDS011;21185;50.978;13.720;2023-01-29T13:23:45;13.32;;;6.47;;
34978;SDS011;21185;50.978;13.720;2023-01-29T13:28:53;9.02;;;4.25;;
34978;SDS011;21185;50.978;13.720;2023-01-29T13:39:29;11.63;;;6.18;;
34978;SDS011;21185;50.978;13.720;2023-01-29T13:44:36;10.65;;;6.03;;
34978;SDS011;21185;50.978;13.720;2023-01-29T13:54:56;13.23;;;6.25;;
34978;SDS011;21185;50.978;13.720;2023-01-29T14:00:00;10.27;;;5.07;;
34978;SDS011;21185;50.978;13.720;2023-01-29T14:10:32;14.15;;;6.07;;
34978;SDS011;21185;50.978;13.720;2023-01-29T14:15:36;14.23;;;5.85;;
34978;SDS011;21185;50.978;13.720;2023-01-29T14:30:50;8.93;;;4.80;;
34978;SDS011;21185;50.978;13.720;2023-01-29T14:35:53;17.92;;;5.53;;
34978;SDS011;21185;50.978;13.720;2023-01-29T14:41:02;9.52;;;5.38;;
34978;SDS011;21185;50.978;13.720;2023-01-29T14:51:35;10.65;;;5.85;;
34978;SDS011;21185;50.978;13.720;2023-01-29T14:56:43;14.05;;;5.75;;
34978;SDS011;21185;50.978;13.720;2023-01-29T15:01:57;10.32;;;5.80;;
34978;SDS011;21185;50.978;13.720;2023-01-29T15:12:35;13.90;;;6.00;;
34978;SDS011;21185;50.978;13.720;2023-01-29T15:17:56;10.43;;;5.38;;
34978;SDS011;21185;50.978;13.720;2023-01-29T15:23:03;11.43;;;4.82;;
34978;SDS011;21185;50.978;13.720;2023-01-29T15:28:24;8.48;;;4.65;;
34978;SDS011;21185;50.978;13.720;2023-01-29T15:33:29;12.65;;;5.57;;
34978;SDS011;21185;50.978;13.720;2023-01-29T15:38:32;15.93;;;7.35;;
34978;SDS011;21185;50.978;13.720;2023-01-29T15:43:34;11.38;;;5.72;;
34978;SDS011;21185;50.978;13.720;2023-01-29T15:48:39;11.50;;;5.90;;
34978;SDS011;21185;50.978;13.720;2023-01-29T15:53:50;14.77;;;7.32;;
34978;SDS011;21185;50.978;13.720;2023-01-29T15:58:56;14.77;;;6.50;;
34978;SDS011;21185;50.978;13.720;2023-01-29T16:04:01;11.13;;;5.28;;
34978;SDS011;21185;50.978;13.720;2023-01-29T16:09:04;13.75;;;5.10;;
34978;SDS011;21185;50.978;13.720;2023-01-29T16:14:09;13.57;;;4.80;;
34978;SDS011;21185;50.978;13.720;2023-01-29T16:19:21;13.60;;;6.65;;
34978;SDS011;21185;50.978;13.720;2023-01-29T16:24:26;9.27;;;5.38;;
34978;SDS011;21185;50.978;13.720;2023-01-29T16:29:32;12.77;;;6.65;;
34978;SDS011;21185;50.978;13.720;2023-01-29T16:39:44;11.85;;;5.38;;
34978;SDS011;21185;50.978;13.720;2023-01-29T16:44:50;9.52;;;4.60;;
34978;SDS011;21185;50.978;13.720;2023-01-29T16:50:40;7.57;;;4.45;;
34978;SDS011;21185;50.978;13.720;2023-01-29T16:55:47;11.02;;;4.60;;
34978;SDS011;21185;50.978;13.720;2023-01-29T17:00:52;7.40;;;4.30;;
34978;SDS011;21185;50.978;13.720;2023-01-29T17:05:58;9.07;;;4.18;;
34978;SDS011;21185;50.978;13.720;2023-01-29T17:11:11;12.00;;;4.40;;
34978;SDS011;21185;50.978;13.720;2023-01-29T17:16:25;9.57;;;4.20;;
34978;SDS011;21185;50.978;13.720;2023-01-29T17:21:35;9.77;;;4.65;;
34978;SDS011;21185;50.978;13.720;2023-01-29T17:26:37;7.28;;;4.15;;
34978;SDS011;21185;50.978;13.720;2023-01-29T17:31:40;7.70;;;4.35;;
34978;SDS011;21185;50.978;13.720;2023-01-29T17:36:43;12.02;;;5.30;;
34978;SDS011;21185;50.978;13.720;2023-01-29T17:41:46;9.93;;;5.07;;
34978;SDS011;21185;50.978;13.720;2023-01-29T17:46:54;15.82;;;5.43;;
34978;SDS011;21185;50.978;13.720;2023-01-29T17:51:56;10.85;;;5.18;;
34978;SDS011;21185;50.978;13.720;2023-01-29T17:56:58;12.90;;;5.15;;
34978;SDS011;21185;50.978;13.720;2023-01-29T18:01:59;9.77;;;4.90;;
34978;SDS011;21185;50.978;13.720;2023-01-29T18:07:01;8.80;;;5.28;;
34978;SDS011;21185;50.978;13.720;2023-01-29T18:12:07;10.00;;;5.10;;
34978;SDS011;21185;50.978;13.720;2023-01-29T18:17:11;10.73;;;5.60;;
34978;SDS011;21185;50.978;13.720;2023-01-29T18:22:14;9.68;;;5.47;;
34978;SDS011;21185;50.978;13.720;2023-01-29T18:27:16;6.03;;;3.65;;
34978;SDS011;21185;50.978;13.720;2023-01-29T18:32:18;10.50;;;5.07;;
34978;SDS011;21185;50.978;13.720;2023-01-29T18:37:20;7.85;;;3.45;;
34978;SDS011;21185;50.978;13.720;2023-01-29T18:42:22;9.50;;;4.60;;
34978;SDS011;21185;50.978;13.720;2023-01-29T18:47:24;10.70;;;5.60;;
34978;SDS011;21185;50.978;13.720;2023-01-29T18:52:26;15.18;;;6.82;;
34978;SDS011;21185;50.978;13.720;2023-01-29T18:57:28;6.68;;;4.18;;
34978;SDS011;21185;50.978;13.720;2023-01-29T19:02:49;10.70;;;5.38;;
34978;SDS011;21185;50.978;13.720;2023-01-29T19:07:51;7.72;;;4.95;;
34978;SDS011;21185;50.978;13.720;2023-01-29T19:12:53;12.93;;;5.43;;
34978;SDS011;21185;50.978;13.720;2023-01-29T19:17:55;8.75;;;5.18;;
34978;SDS011;21185;50.978;13.720;2023-01-29T19:22:59;8.75;;;4.78;;
34978;SDS011;21185;50.978;13.720;2023-01-29T19:28:00;11.60;;;5.38;;
34978;SDS011;21185;50.978;13.720;2023-01-29T19:33:03;12.48;;;5.30;;
34978;SDS011;21185;50.978;13.720;2023-01-29T19:38:05;6.68;;;4.15;;
34978;SDS011;21185;50.978;13.720;2023-01-29T19:43:07;11.38;;;4.85;;
34978;SDS011;21185;50.978;13.720;2023-01-29T19:48:09;14.98;;;5.53;;
34978;SDS011;21185;50.978;13.720;2023-01-29T19:53:11;12.35;;;4.95;;
34978;SDS011;21185;50.978;13.720;2023-01-29T19:58:13;11.63;;;5.07;;
34978;SDS011;21185;50.978;13.720;2023-01-29T20:03:15;9.80;;;5.32;;
34978;SDS011;21185;50.978;13.720;2023-01-29T20:08:17;8.13;;;4.30;;
34978;SDS011;21185;50.978;13.720;2023-01-29T20:13:19;8.63;;;4.50;;
34978;SDS011;21185;50.978;13.720;2023-01-29T20:18:22;13.63;;;5.43;;
34978;SDS011;21185;50.978;13.720;2023-01-29T20:23:24;9.00;;;4.43;;
34978;SDS011;21185;50.978;13.720;2023-01-29T20:28:38;10.38;;;4.50;;
34978;SDS011;21185;50.978;13.720;2023-01-29T20:33:41;11.00;;;5.55;;
34978;SDS011;21185;50.978;13.720;2023-01-29T20:38:43;10.38;;;5.40;;
34978;SDS011;21185;50.978;13.720;2023-01-29T20:43:45;8.63;;;4.45;;
34978;SDS011;21185;50.978;13.720;2023-01-29T20:48:47;9.93;;;5.13;;
34978;SDS011;21185;50.978;13.720;2023-01-29T20:53:56;8.50;;;5.22;;
34978;SDS011;21185;50.978;13.720;2023-01-29T20:58:57;9.60;;;5.57;;
34978;SDS011;21185;50.978;13.720;2023-01-29T21:03:59;9.93;;;5.40;;
34978;SDS011;21185;50.978;13.720;2023-01-29T21:09:01;8.25;;;4.45;;
34978;SDS011;21185;50.978;13.720;2023-01-29T21:14:03;8.82;;;4.38;;
34978;SDS011;21185;50.978;13.720;2023-01-29T21:19:05;11.23;;;5.97;;
34978;SDS011;21185;50.978;13.720;2023-01-29T21:24:07;12.50;;;5.82;;
34978;SDS011;21185;50.978;13.720;2023-01-29T21:29:10;11.10;;;4.88;;
34978;SDS011;21185;50.978;13.720;2023-01-29T21:34:12;9.40;;;5.22;;
34978;SDS011;21185;50.978;13.720;2023-01-29T21:39:14;14.50;;;5.60;;
34978;SDS011;21185;50.978;13.720;2023-01-29T21:44:21;14.15;;;6.60;;
34978;SDS011;21185;50.978;13.720;2023-01-29T21:49:23;12.65;;;5.72;;
34978;SDS011;21185;50.978;13.720;2023-01-29T21:54:25;13.75;;;6.97;;
34978;SDS011;21185;50.978;13.720;2023-01-29T21:59:31;12.15;;;6.80;;
34978;SDS011;21185;50.978;13.720;2023-01-29T22:04:33;16.80;;;7.32;;
34978;SDS011;21185;50.978;13.720;2023-01-29T22:09:35;12.73;;;6.10;;
34978;SDS011;21185;50.978;13.720;2023-01-29T22:14:37;10.52;;;5.45;;
34978;SDS011;21185;50.978;13.720;2023-01-29T22:19:40;11.02;;;5.93;;
34978;SDS011;21185;50.978;13.720;2023-01-29T22:24:42;14.13;;;6.63;;
34978;SDS011;21185;50.978;13.720;2023-01-29T22:29:46;8.75;;;5.28;;
34978;SDS011;21185;50.978;13.720;2023-01-29T22:34:48;14.63;;;7.22;;
34978;SDS011;21185;50.978;13.720;2023-01-29T22:39:50;9.98;;;6.32;;
34978;SDS011;21185;50.978;13.720;2023-01-29T22:44:52;10.20;;;5.65;;
34978;SDS011;21185;50.978;13.720;2023-01-29T22:49:54;14.52;;;5.35;;
34978;SDS011;21185;50.978;13.720;2023-01-29T22:54:56;13.10;;;6.20;;
34978;SDS011;21185;50.978;13.720;2023-01-29T22:59:58;17.52;;;6.30;;
34978;SDS011;21185;50.978;13.720;2023-01-29T23:05:00;9.35;;;4.95;;
34978;SDS011;21185;50.978;13.720;2023-01-29T23:10:02;15.27;;;5.43;;
34978;SDS011;21185;50.978;13.720;2023-01-29T23:15:06;12.00;;;6.07;;
34978;SDS011;21185;50.978;13.720;2023-01-29T23:20:08;10.00;;;5.00;;
34978;SDS011;21185;50.978;13.720;2023-01-29T23:25:11;13.05;;;5.70;;
34978;SDS011;21185;50.978;13.720;2023-01-29T23:30:13;10.85;;;6.13;;
34978;SDS011;21185;50.978;13.720;2023-01-29T23:35:15;11.68;;;5.47;;
34978;SDS011;21185;50.978;13.720;2023-01-29T23:40:17;13.57;;;6.18;;
34978;SDS011;21185;50.978;13.720;2023-01-29T23:45:19;5.00;;;2.53;;
34978;SDS011;21185;50.978;13.720;2023-01-29T23:50:21;11.07;;;4.82;;
34978;SDS011;21185;50.978;13.720;2023-01-29T23:55:23;12.02;;;5.50;;
